sensor_id;sensor_type;location;lat;lon;timestamp;pressure;altitude;pressure_sealevel;temperature;humidity
43450;BME280;29041;42.266;23.110;2023-08-06T00:00:15;94615.09;;;20.42;100.00
43450;BME280;29041;42.266;23.110;2023-08-06T00:03:02;94622.72;;;20.00;100.00
43450;BME280;29041;42.266;23.110;2023-08-06T00:05:49;94614.72;;;20.17;100.00
43450;BME280;29041;42.266;23.110;2023-08-06T00:08:38;94617.72;;;20.22;100.00
43450;BME280;29041;42.266;23.110;2023-08-06T00:11:25;94628.06;;;20.07;100.00
43450;BME280;29041;42.266;23.110;2023-08-06T00:14:12;94627.28;;;20.34;100.00
43450;BME280;29041;42.266;23.110;2023-08-06T00:17:01;94597.53;;;20.43;100.00
43450;BME280;29041;42.266;23.110;2023-08-06T00:19:48;94613.75;;;20.78;100.00
43450;BME280;29041;42.266;23.110;2023-08-06T00:22:36;94628.22;;;19.96;100.00
43450;BME280;29041;42.266;23.110;2023-08-06T00:25:25;94640.41;;;19.88;100.00
43450;BME280;29041;42.266;23.110;2023-08-06T00:28:12;94614.22;;;20.49;100.00
43450;BME280;29041;42.266;23.110;2023-08-06T00:30:59;94623.03;;;21.04;100.00
43450;BME280;29041;42.266;23.110;2023-08-06T00:33:46;94612.28;;;20.73;100.00
43450;BME280;29041;42.266;23.110;2023-08-06T00:36:33;94623.72;;;21.08;100.00
43450;BME280;29041;42.266;23.110;2023-08-06T00:39:20;94604.44;;;21.19;100.00
43450;BME280;29041;42.266;23.110;2023-08-06T00:42:09;94589.44;;;21.48;100.00
43450;BME280;29041;42.266;23.110;2023-08-06T00:44:56;94588.84;;;21.40;100.00
43450;BME280;29041;42.266;23.110;2023-08-06T00:47:43;94584.09;;;20.33;100.00
43450;BME280;29041;42.266;23.110;2023-08-06T00:50:31;94580.78;;;19.94;100.00
43450;BME280;29041;42.266;23.110;2023-08-06T00:53:18;94587.06;;;19.91;100.00
43450;BME280;29041;42.266;23.110;2023-08-06T00:56:06;94592.72;;;20.04;100.00
43450;BME280;29041;42.266;23.110;2023-08-06T00:58:55;94607.84;;;19.46;100.00
43450;BME280;29041;42.266;23.110;2023-08-06T01:01:42;94583.84;;;19.69;100.00
43450;BME280;29041;42.266;23.110;2023-08-06T01:04:30;94586.38;;;19.83;100.00
43450;BME280;29041;42.266;23.110;2023-08-06T01:07:29;94588.88;;;19.39;100.00
43450;BME280;29041;42.266;23.110;2023-08-06T01:10:26;94579.34;;;19.55;100.00
43450;BME280;29041;42.266;23.110;2023-08-06T01:13:23;94576.91;;;20.19;100.00
43450;BME280;29041;42.266;23.110;2023-08-06T01:16:15;94576.81;;;19.71;100.00
43450;BME280;29041;42.266;23.110;2023-08-06T01:19:02;94590.28;;;19.82;100.00
43450;BME280;29041;42.266;23.110;2023-08-06T01:21:51;94589.63;;;19.43;100.00
43450;BME280;29041;42.266;23.110;2023-08-06T01:24:38;94585.91;;;18.92;100.00
43450;BME280;29041;42.266;23.110;2023-08-06T01:27:28;94581.50;;;19.36;100.00
43450;BME280;29041;42.266;23.110;2023-08-06T01:30:20;94571.84;;;19.62;100.00
43450;BME280;29041;42.266;23.110;2023-08-06T01:33:15;94580.75;;;19.66;100.00
43450;BME280;29041;42.266;23.110;2023-08-06T01:36:04;94585.72;;;19.10;100.00
43450;BME280;29041;42.266;23.110;2023-08-06T01:38:54;94580.13;;;19.24;100.00
43450;BME280;29041;42.266;23.110;2023-08-06T01:41:41;94570.03;;;18.83;100.00
43450;BME280;29041;42.266;23.110;2023-08-06T01:44:28;94556.34;;;18.94;100.00
43450;BME280;29041;42.266;23.110;2023-08-06T01:47:15;94536.56;;;18.93;100.00
43450;BME280;29041;42.266;23.110;2023-08-06T01:50:03;94562.03;;;19.41;100.00
43450;BME280;29041;42.266;23.110;2023-08-06T01:52:50;94574.81;;;19.13;100.00
43450;BME280;29041;42.266;23.110;2023-08-06T01:55:38;94591.25;;;18.99;100.00
43450;BME280;29041;42.266;23.110;2023-08-06T01:58:26;94588.41;;;19.13;100.00
43450;BME280;29041;42.266;23.110;2023-08-06T02:01:13;94591.00;;;19.55;100.00
43450;BME280;29041;42.266;23.110;2023-08-06T02:04:00;94580.34;;;19.68;100.00
43450;BME280;29041;42.266;23.110;2023-08-06T02:06:47;94556.72;;;19.61;100.00
43450;BME280;29041;42.266;23.110;2023-08-06T02:09:34;94559.38;;;19.65;100.00
43450;BME280;29041;42.266;23.110;2023-08-06T02:12:23;94581.47;;;19.71;100.00
43450;BME280;29041;42.266;23.110;2023-08-06T02:15:10;94578.78;;;19.67;100.00
43450;BME280;29041;42.266;23.110;2023-08-06T02:17:57;94600.38;;;19.20;100.00
43450;BME280;29041;42.266;23.110;2023-08-06T02:20:55;94600.09;;;19.45;100.00
43450;BME280;29041;42.266;23.110;2023-08-06T02:23:43;94577.66;;;18.99;100.00
43450;BME280;29041;42.266;23.110;2023-08-06T02:26:30;94593.97;;;19.33;100.00
43450;BME280;29041;42.266;23.110;2023-08-06T02:29:19;94573.06;;;19.89;100.00
43450;BME280;29041;42.266;23.110;2023-08-06T02:32:07;94567.16;;;19.36;100.00
43450;BME280;29041;42.266;23.110;2023-08-06T02:34:54;94543.06;;;19.03;100.00
43450;BME280;29041;42.266;23.110;2023-08-06T02:37:41;94557.22;;;18.83;100.00
43450;BME280;29041;42.266;23.110;2023-08-06T02:40:28;94570.81;;;18.83;100.00
43450;BME280;29041;42.266;23.110;2023-08-06T02:43:15;94580.41;;;18.95;100.00
43450;BME280;29041;42.266;23.110;2023-08-06T02:46:04;94586.19;;;19.36;100.00
43450;BME280;29041;42.266;23.110;2023-08-06T02:48:51;94586.50;;;19.72;100.00
43450;BME280;29041;42.266;23.110;2023-08-06T02:51:38;94600.63;;;19.63;100.00
43450;BME280;29041;42.266;23.110;2023-08-06T02:54:25;94584.69;;;19.93;100.00
43450;BME280;29041;42.266;23.110;2023-08-06T02:57:12;94600.53;;;20.53;100.00
43450;BME280;29041;42.266;23.110;2023-08-06T02:59:59;94597.41;;;20.27;100.00
43450;BME280;29041;42.266;23.110;2023-08-06T03:02:48;94617.19;;;20.07;100.00
43450;BME280;29041;42.266;23.110;2023-08-06T03:05:39;94617.38;;;19.93;100.00
43450;BME280;29041;42.266;23.110;2023-08-06T03:08:26;94613.69;;;19.76;100.00
43450;BME280;29041;42.266;23.110;2023-08-06T03:11:13;94614.03;;;19.78;100.00
43450;BME280;29041;42.266;23.110;2023-08-06T03:14:00;94618.81;;;19.70;100.00
43450;BME280;29041;42.266;23.110;2023-08-06T03:16:47;94611.25;;;19.85;100.00
43450;BME280;29041;42.266;23.110;2023-08-06T03:19:36;94614.94;;;19.37;100.00
43450;BME280;29041;42.266;23.110;2023-08-06T03:22:23;94626.25;;;19.66;100.00
43450;BME280;29041;42.266;23.110;2023-08-06T03:25:10;94628.06;;;19.76;100.00
43450;BME280;29041;42.266;23.110;2023-08-06T03:27:57;94625.06;;;19.67;100.00
43450;BME280;29041;42.266;23.110;2023-08-06T03:30:44;94623.28;;;19.88;100.00
43450;BME280;29041;42.266;23.110;2023-08-06T03:33:31;94618.97;;;19.90;100.00
43450;BME280;29041;42.266;23.110;2023-08-06T03:36:20;94611.03;;;19.72;100.00
43450;BME280;29041;42.266;23.110;2023-08-06T03:39:07;94624.13;;;19.50;100.00
43450;BME280;29041;42.266;23.110;2023-08-06T03:41:54;94625.56;;;19.58;100.00
43450;BME280;29041;42.266;23.110;2023-08-06T03:44:41;94624.50;;;19.52;100.00
43450;BME280;29041;42.266;23.110;2023-08-06T03:47:28;94625.78;;;19.40;100.00
43450;BME280;29041;42.266;23.110;2023-08-06T03:50:16;94630.34;;;19.50;100.00
43450;BME280;29041;42.266;23.110;2023-08-06T03:53:04;94627.69;;;20.05;100.00
43450;BME280;29041;42.266;23.110;2023-08-06T03:55:51;94635.06;;;20.08;100.00
43450;BME280;29041;42.266;23.110;2023-08-06T03:58:39;94641.59;;;19.84;100.00
43450;BME280;29041;42.266;23.110;2023-08-06T04:01:26;94646.25;;;19.87;100.00
43450;BME280;29041;42.266;23.110;2023-08-06T04:04:13;94647.22;;;19.69;100.00
43450;BME280;29041;42.266;23.110;2023-08-06T04:07:00;94638.34;;;19.65;100.00
43450;BME280;29041;42.266;23.110;2023-08-06T04:09:59;94630.25;;;19.58;100.00
43450;BME280;29041;42.266;23.110;2023-08-06T04:12:46;94623.38;;;19.49;100.00
43450;BME280;29041;42.266;23.110;2023-08-06T04:15:33;94626.81;;;19.85;100.00
43450;BME280;29041;42.266;23.110;2023-08-06T04:18:21;94624.13;;;20.12;100.00
43450;BME280;29041;42.266;23.110;2023-08-06T04:21:08;94610.53;;;20.36;100.00
43450;BME280;29041;42.266;23.110;2023-08-06T04:23:56;94594.34;;;20.49;100.00
43450;BME280;29041;42.266;23.110;2023-08-06T04:26:45;94582.69;;;19.97;100.00
43450;BME280;29041;42.266;23.110;2023-08-06T04:29:33;94599.38;;;19.99;100.00
43450;BME280;29041;42.266;23.110;2023-08-06T04:32:20;94604.34;;;19.77;100.00
43450;BME280;29041;42.266;23.110;2023-08-06T04:35:07;94594.50;;;19.56;100.00
43450;BME280;29041;42.266;23.110;2023-08-06T04:37:54;94597.19;;;20.41;100.00
43450;BME280;29041;42.266;23.110;2023-08-06T04:40:41;94587.75;;;20.22;100.00
43450;BME280;29041;42.266;23.110;2023-08-06T04:43:30;94585.19;;;20.11;100.00
43450;BME280;29041;42.266;23.110;2023-08-06T04:46:17;94575.97;;;20.29;100.00
43450;BME280;29041;42.266;23.110;2023-08-06T04:49:04;94577.75;;;20.63;100.00
43450;BME280;29041;42.266;23.110;2023-08-06T04:51:51;94564.84;;;20.43;100.00
43450;BME280;29041;42.266;23.110;2023-08-06T04:54:38;94583.34;;;20.32;100.00
43450;BME280;29041;42.266;23.110;2023-08-06T04:57:25;94584.47;;;20.07;100.00
43450;BME280;29041;42.266;23.110;2023-08-06T05:00:14;94583.66;;;20.10;100.00
43450;BME280;29041;42.266;23.110;2023-08-06T05:03:01;94580.78;;;19.94;100.00
43450;BME280;29041;42.266;23.110;2023-08-06T05:05:49;94591.88;;;19.79;100.00
43450;BME280;29041;42.266;23.110;2023-08-06T05:08:36;94597.34;;;19.76;100.00
43450;BME280;29041;42.266;23.110;2023-08-06T05:11:24;94602.22;;;19.61;100.00
43450;BME280;29041;42.266;23.110;2023-08-06T05:14:11;94591.22;;;19.68;100.00
43450;BME280;29041;42.266;23.110;2023-08-06T05:17:00;94600.81;;;20.07;100.00
43450;BME280;29041;42.266;23.110;2023-08-06T05:19:47;94598.56;;;20.02;100.00
43450;BME280;29041;42.266;23.110;2023-08-06T05:22:35;94601.59;;;20.08;100.00
43450;BME280;29041;42.266;23.110;2023-08-06T05:25:22;94601.94;;;20.37;100.00
43450;BME280;29041;42.266;23.110;2023-08-06T05:28:09;94605.03;;;20.39;100.00
43450;BME280;29041;42.266;23.110;2023-08-06T05:30:56;94591.59;;;20.01;100.00
43450;BME280;29041;42.266;23.110;2023-08-06T05:33:44;94592.81;;;20.24;100.00
43450;BME280;29041;42.266;23.110;2023-08-06T05:36:31;94588.72;;;20.36;100.00
43450;BME280;29041;42.266;23.110;2023-08-06T05:39:18;94578.22;;;20.58;100.00
43450;BME280;29041;42.266;23.110;2023-08-06T05:42:06;94579.22;;;20.68;100.00
43450;BME280;29041;42.266;23.110;2023-08-06T05:44:53;94581.63;;;20.42;100.00
43450;BME280;29041;42.266;23.110;2023-08-06T05:47:40;94577.09;;;20.55;100.00
43450;BME280;29041;42.266;23.110;2023-08-06T05:50:29;94567.94;;;20.45;100.00
43450;BME280;29041;42.266;23.110;2023-08-06T05:53:16;94573.47;;;20.86;100.00
43450;BME280;29041;42.266;23.110;2023-08-06T05:56:03;94585.53;;;20.88;100.00
43450;BME280;29041;42.266;23.110;2023-08-06T05:58:50;94587.00;;;21.74;100.00
43450;BME280;29041;42.266;23.110;2023-08-06T06:01:38;94601.56;;;21.47;100.00
43450;BME280;29041;42.266;23.110;2023-08-06T06:04:26;94604.47;;;21.96;100.00
43450;BME280;29041;42.266;23.110;2023-08-06T06:07:14;94608.72;;;21.40;100.00
43450;BME280;29041;42.266;23.110;2023-08-06T06:10:01;94612.66;;;21.96;100.00
43450;BME280;29041;42.266;23.110;2023-08-06T06:12:48;94601.66;;;21.63;100.00
43450;BME280;29041;42.266;23.110;2023-08-06T06:15:36;94626.97;;;22.21;100.00
43450;BME280;29041;42.266;23.110;2023-08-06T06:18:23;94630.41;;;22.58;100.00
43450;BME280;29041;42.266;23.110;2023-08-06T06:21:11;94638.28;;;22.02;100.00
43450;BME280;29041;42.266;23.110;2023-08-06T06:23:59;94642.38;;;22.47;100.00
43450;BME280;29041;42.266;23.110;2023-08-06T06:26:46;94650.28;;;22.25;100.00
43450;BME280;29041;42.266;23.110;2023-08-06T06:29:33;94642.09;;;21.89;100.00
43450;BME280;29041;42.266;23.110;2023-08-06T06:32:20;94651.63;;;21.40;100.00
43450;BME280;29041;42.266;23.110;2023-08-06T06:35:08;94642.38;;;21.14;100.00
43450;BME280;29041;42.266;23.110;2023-08-06T06:37:55;94644.63;;;21.79;100.00
43450;BME280;29041;42.266;23.110;2023-08-06T06:40:46;94640.75;;;21.97;100.00
43450;BME280;29041;42.266;23.110;2023-08-06T06:43:40;94651.44;;;22.08;100.00
43450;BME280;29041;42.266;23.110;2023-08-06T06:46:27;94651.00;;;21.73;100.00
43450;BME280;29041;42.266;23.110;2023-08-06T06:49:14;94657.25;;;22.10;100.00
43450;BME280;29041;42.266;23.110;2023-08-06T06:52:02;94656.06;;;22.27;100.00
43450;BME280;29041;42.266;23.110;2023-08-06T06:54:49;94655.88;;;22.01;100.00
43450;BME280;29041;42.266;23.110;2023-08-06T06:57:38;94663.97;;;21.68;100.00
43450;BME280;29041;42.266;23.110;2023-08-06T07:00:25;94666.50;;;22.16;100.00
43450;BME280;29041;42.266;23.110;2023-08-06T07:03:12;94668.88;;;22.67;100.00
43450;BME280;29041;42.266;23.110;2023-08-06T07:05:59;94673.88;;;23.02;100.00
43450;BME280;29041;42.266;23.110;2023-08-06T07:08:46;94682.03;;;22.19;100.00
43450;BME280;29041;42.266;23.110;2023-08-06T07:11:33;94690.63;;;22.38;100.00
43450;BME280;29041;42.266;23.110;2023-08-06T07:14:23;94690.38;;;22.12;100.00
43450;BME280;29041;42.266;23.110;2023-08-06T07:17:10;94692.03;;;22.79;100.00
43450;BME280;29041;42.266;23.110;2023-08-06T07:19:57;94699.66;;;22.34;100.00
43450;BME280;29041;42.266;23.110;2023-08-06T07:22:44;94697.69;;;22.55;100.00
43450;BME280;29041;42.266;23.110;2023-08-06T07:25:31;94691.34;;;22.91;100.00
43450;BME280;29041;42.266;23.110;2023-08-06T07:28:19;94680.66;;;23.72;100.00
43450;BME280;29041;42.266;23.110;2023-08-06T07:31:07;94680.22;;;23.61;100.00
43450;BME280;29041;42.266;23.110;2023-08-06T07:33:55;94704.16;;;23.57;100.00
43450;BME280;29041;42.266;23.110;2023-08-06T07:36:43;94703.91;;;24.10;100.00
43450;BME280;29041;42.266;23.110;2023-08-06T07:39:42;94705.16;;;24.61;100.00
43450;BME280;29041;42.266;23.110;2023-08-06T07:42:29;94701.31;;;24.97;100.00
43450;BME280;29041;42.266;23.110;2023-08-06T07:45:16;94719.56;;;25.39;99.34
43450;BME280;29041;42.266;23.110;2023-08-06T07:48:05;94714.66;;;25.21;97.78
43450;BME280;29041;42.266;23.110;2023-08-06T07:50:53;94710.03;;;25.17;100.00
43450;BME280;29041;42.266;23.110;2023-08-06T07:53:40;94693.47;;;28.16;87.94
43450;BME280;29041;42.266;23.110;2023-08-06T07:56:27;94672.84;;;29.36;77.07
43450;BME280;29041;42.266;23.110;2023-08-06T07:59:14;94672.38;;;31.08;68.86
43450;BME280;29041;42.266;23.110;2023-08-06T08:02:02;94683.59;;;30.48;66.03
43450;BME280;29041;42.266;23.110;2023-08-06T08:04:51;94667.28;;;31.89;57.86
43450;BME280;29041;42.266;23.110;2023-08-06T08:07:38;94666.91;;;33.70;46.46
43450;BME280;29041;42.266;23.110;2023-08-06T08:10:25;94665.09;;;32.57;48.76
43450;BME280;29041;42.266;23.110;2023-08-06T08:13:13;94672.94;;;33.51;44.60
43450;BME280;29041;42.266;23.110;2023-08-06T08:16:01;94675.28;;;32.08;46.78
43450;BME280;29041;42.266;23.110;2023-08-06T08:18:48;94676.31;;;32.10;46.95
43450;BME280;29041;42.266;23.110;2023-08-06T08:21:36;94670.34;;;32.82;46.15
43450;BME280;29041;42.266;23.110;2023-08-06T08:24:24;94655.66;;;33.25;45.93
43450;BME280;29041;42.266;23.110;2023-08-06T08:27:11;94649.16;;;35.26;38.57
43450;BME280;29041;42.266;23.110;2023-08-06T08:29:58;94651.81;;;34.96;36.36
43450;BME280;29041;42.266;23.110;2023-08-06T08:32:45;94653.31;;;34.74;36.21
43450;BME280;29041;42.266;23.110;2023-08-06T08:35:32;94644.44;;;34.99;38.03
43450;BME280;29041;42.266;23.110;2023-08-06T08:38:21;94653.72;;;33.48;39.15
43450;BME280;29041;42.266;23.110;2023-08-06T08:41:10;94650.34;;;28.71;52.10
43450;BME280;29041;42.266;23.110;2023-08-06T08:43:58;94654.59;;;27.86;56.05
43450;BME280;29041;42.266;23.110;2023-08-06T08:46:45;94657.53;;;26.17;59.13
43450;BME280;29041;42.266;23.110;2023-08-06T08:49:35;94658.81;;;25.81;61.21
43450;BME280;29041;42.266;23.110;2023-08-06T08:52:23;94638.53;;;26.41;60.96
43450;BME280;29041;42.266;23.110;2023-08-06T08:55:15;94642.31;;;26.03;61.13
43450;BME280;29041;42.266;23.110;2023-08-06T08:58:03;94644.47;;;24.84;65.80
43450;BME280;29041;42.266;23.110;2023-08-06T09:00:50;94629.88;;;24.75;70.88
43450;BME280;29041;42.266;23.110;2023-08-06T09:03:39;94650.34;;;24.96;69.28
43450;BME280;29041;42.266;23.110;2023-08-06T09:06:27;94630.56;;;26.34;65.96
43450;BME280;29041;42.266;23.110;2023-08-06T09:09:20;94645.41;;;25.61;66.25
43450;BME280;29041;42.266;23.110;2023-08-06T09:12:13;94636.19;;;25.77;66.88
43450;BME280;29041;42.266;23.110;2023-08-06T09:15:01;94649.88;;;25.10;66.96
43450;BME280;29041;42.266;23.110;2023-08-06T09:17:49;94639.91;;;25.03;66.94
43450;BME280;29041;42.266;23.110;2023-08-06T09:20:37;94644.50;;;25.07;67.63
43450;BME280;29041;42.266;23.110;2023-08-06T09:23:27;94647.59;;;24.96;67.41
43450;BME280;29041;42.266;23.110;2023-08-06T09:26:16;94645.25;;;24.59;67.34
43450;BME280;29041;42.266;23.110;2023-08-06T09:29:06;94654.88;;;24.90;67.95
43450;BME280;29041;42.266;23.110;2023-08-06T09:31:53;94653.44;;;24.98;68.92
43450;BME280;29041;42.266;23.110;2023-08-06T09:34:42;94658.53;;;24.86;68.54
43450;BME280;29041;42.266;23.110;2023-08-06T09:37:35;94650.69;;;24.98;68.02
43450;BME280;29041;42.266;23.110;2023-08-06T09:40:26;94649.88;;;25.10;67.99
43450;BME280;29041;42.266;23.110;2023-08-06T09:43:13;94646.38;;;25.32;65.83
43450;BME280;29041;42.266;23.110;2023-08-06T09:46:11;94634.81;;;25.15;67.37
43450;BME280;29041;42.266;23.110;2023-08-06T09:48:58;94632.59;;;25.23;65.05
43450;BME280;29041;42.266;23.110;2023-08-06T09:51:46;94645.91;;;25.11;66.88
43450;BME280;29041;42.266;23.110;2023-08-06T09:54:37;94627.41;;;25.25;65.19
43450;BME280;29041;42.266;23.110;2023-08-06T09:57:25;94630.53;;;25.49;67.49
43450;BME280;29041;42.266;23.110;2023-08-06T10:00:12;94644.06;;;25.43;67.12
43450;BME280;29041;42.266;23.110;2023-08-06T10:03:01;94635.94;;;26.47;64.91
43450;BME280;29041;42.266;23.110;2023-08-06T10:05:49;94645.00;;;26.16;64.19
43450;BME280;29041;42.266;23.110;2023-08-06T10:08:36;94631.59;;;26.27;68.18
43450;BME280;29041;42.266;23.110;2023-08-06T10:11:24;94637.19;;;26.65;63.90
43450;BME280;29041;42.266;23.110;2023-08-06T10:14:14;94637.31;;;26.42;63.74
43450;BME280;29041;42.266;23.110;2023-08-06T10:17:03;94631.56;;;26.68;59.77
43450;BME280;29041;42.266;23.110;2023-08-06T10:19:54;94639.94;;;26.15;64.16
43450;BME280;29041;42.266;23.110;2023-08-06T10:22:42;94630.50;;;25.93;60.79
43450;BME280;29041;42.266;23.110;2023-08-06T10:25:33;94642.84;;;25.44;62.96
43450;BME280;29041;42.266;23.110;2023-08-06T10:28:20;94630.84;;;26.05;63.54
43450;BME280;29041;42.266;23.110;2023-08-06T10:31:08;94636.75;;;25.94;61.17
43450;BME280;29041;42.266;23.110;2023-08-06T10:33:55;94649.44;;;26.23;58.46
43450;BME280;29041;42.266;23.110;2023-08-06T10:36:43;94637.50;;;26.17;59.94
43450;BME280;29041;42.266;23.110;2023-08-06T10:39:31;94637.38;;;26.70;59.12
43450;BME280;29041;42.266;23.110;2023-08-06T10:42:22;94640.19;;;26.98;57.21
43450;BME280;29041;42.266;23.110;2023-08-06T10:45:13;94636.25;;;27.36;56.33
43450;BME280;29041;42.266;23.110;2023-08-06T10:48:01;94642.03;;;26.92;55.95
43450;BME280;29041;42.266;23.110;2023-08-06T10:50:48;94646.19;;;27.24;57.06
43450;BME280;29041;42.266;23.110;2023-08-06T10:53:37;94641.09;;;26.86;58.27
43450;BME280;29041;42.266;23.110;2023-08-06T10:56:25;94640.94;;;26.80;56.83
43450;BME280;29041;42.266;23.110;2023-08-06T10:59:15;94623.84;;;27.04;57.00
43450;BME280;29041;42.266;23.110;2023-08-06T11:02:03;94646.78;;;26.41;58.35
43450;BME280;29041;42.266;23.110;2023-08-06T11:05:21;94653.91;;;26.29;58.65
43450;BME280;29041;42.266;23.110;2023-08-06T11:08:08;94652.69;;;26.71;59.35
43450;BME280;29041;42.266;23.110;2023-08-06T11:11:07;94652.03;;;26.67;59.80
43450;BME280;29041;42.266;23.110;2023-08-06T11:13:56;94647.25;;;26.49;59.77
43450;BME280;29041;42.266;23.110;2023-08-06T11:16:43;94652.03;;;26.67;59.25
43450;BME280;29041;42.266;23.110;2023-08-06T11:19:30;94658.25;;;26.49;58.40
43450;BME280;29041;42.266;23.110;2023-08-06T11:22:18;94653.25;;;26.25;60.64
43450;BME280;29041;42.266;23.110;2023-08-06T11:25:06;94648.72;;;26.72;59.06
43450;BME280;29041;42.266;23.110;2023-08-06T11:27:55;94649.56;;;26.60;59.66
43450;BME280;29041;42.266;23.110;2023-08-06T11:30:42;94642.03;;;26.92;57.25
43450;BME280;29041;42.266;23.110;2023-08-06T11:33:29;94632.25;;;27.28;59.50
43450;BME280;29041;42.266;23.110;2023-08-06T11:36:28;94634.44;;;27.61;55.93
43450;BME280;29041;42.266;23.110;2023-08-06T11:39:15;94633.25;;;28.14;56.36
43450;BME280;29041;42.266;23.110;2023-08-06T11:42:03;94632.88;;;27.51;55.39
43450;BME280;29041;42.266;23.110;2023-08-06T11:44:52;94642.97;;;27.63;54.69
43450;BME280;29041;42.266;23.110;2023-08-06T11:47:39;94631.59;;;27.98;51.88
43450;BME280;29041;42.266;23.110;2023-08-06T11:50:27;94636.28;;;26.58;53.39
43450;BME280;29041;42.266;23.110;2023-08-06T11:53:16;94631.06;;;26.51;53.62
43450;BME280;29041;42.266;23.110;2023-08-06T11:56:03;94628.44;;;27.44;52.77
43450;BME280;29041;42.266;23.110;2023-08-06T11:58:50;94632.09;;;26.95;51.12
43450;BME280;29041;42.266;23.110;2023-08-06T12:01:39;94631.53;;;26.59;53.29
43450;BME280;29041;42.266;23.110;2023-08-06T12:04:26;94620.78;;;27.02;52.04
43450;BME280;29041;42.266;23.110;2023-08-06T12:07:15;94614.34;;;27.61;52.61
43450;BME280;29041;42.266;23.110;2023-08-06T12:10:03;94603.97;;;27.46;51.54
43450;BME280;29041;42.266;23.110;2023-08-06T12:12:50;94618.19;;;27.17;51.88
43450;BME280;29041;42.266;23.110;2023-08-06T12:15:37;94619.56;;;27.31;50.13
43450;BME280;29041;42.266;23.110;2023-08-06T12:18:26;94611.75;;;27.57;51.91
43450;BME280;29041;42.266;23.110;2023-08-06T12:21:13;94607.91;;;27.08;49.43
43450;BME280;29041;42.266;23.110;2023-08-06T12:24:01;94614.81;;;27.68;52.21
43450;BME280;29041;42.266;23.110;2023-08-06T12:26:48;94618.47;;;27.19;50.00
43450;BME280;29041;42.266;23.110;2023-08-06T12:29:35;94615.72;;;27.65;49.73
43450;BME280;29041;42.266;23.110;2023-08-06T12:32:23;94621.22;;;27.75;49.85
43450;BME280;29041;42.266;23.110;2023-08-06T12:35:11;94620.97;;;27.45;48.82
43450;BME280;29041;42.266;23.110;2023-08-06T12:37:59;94614.31;;;27.79;49.83
43450;BME280;29041;42.266;23.110;2023-08-06T12:40:46;94614.75;;;27.87;49.76
43450;BME280;29041;42.266;23.110;2023-08-06T12:43:34;94620.31;;;27.59;49.22
43450;BME280;29041;42.266;23.110;2023-08-06T12:46:21;94611.38;;;27.92;49.92
43450;BME280;29041;42.266;23.110;2023-08-06T12:49:08;94618.31;;;27.60;49.57
43450;BME280;29041;42.266;23.110;2023-08-06T12:51:56;94627.53;;;27.29;49.37
43450;BME280;29041;42.266;23.110;2023-08-06T12:54:45;94613.28;;;27.30;48.86
43450;BME280;29041;42.266;23.110;2023-08-06T12:57:32;94616.19;;;27.36;49.89
43450;BME280;29041;42.266;23.110;2023-08-06T13:00:20;94602.56;;;27.14;49.66
43450;BME280;29041;42.266;23.110;2023-08-06T13:03:07;94609.91;;;27.26;49.69
43450;BME280;29041;42.266;23.110;2023-08-06T13:05:54;94615.72;;;27.28;50.64
43450;BME280;29041;42.266;23.110;2023-08-06T13:08:43;94613.44;;;26.89;50.36
43450;BME280;29041;42.266;23.110;2023-08-06T13:11:30;94626.13;;;26.87;50.13
43450;BME280;29041;42.266;23.110;2023-08-06T13:14:18;94623.84;;;27.04;52.50
43450;BME280;29041;42.266;23.110;2023-08-06T13:17:05;94619.41;;;27.25;50.07
43450;BME280;29041;42.266;23.110;2023-08-06T13:19:53;94625.38;;;27.33;49.56
43450;BME280;29041;42.266;23.110;2023-08-06T13:22:40;94625.41;;;27.42;47.78
43450;BME280;29041;42.266;23.110;2023-08-06T13:25:28;94617.41;;;27.07;47.70
43450;BME280;29041;42.266;23.110;2023-08-06T13:28:16;94619.72;;;27.27;47.19
43450;BME280;29041;42.266;23.110;2023-08-06T13:31:03;94622.16;;;26.97;50.14
43450;BME280;29041;42.266;23.110;2023-08-06T13:33:50;94624.00;;;27.00;49.70
43450;BME280;29041;42.266;23.110;2023-08-06T13:36:37;94613.13;;;26.87;51.42
43450;BME280;29041;42.266;23.110;2023-08-06T13:39:24;94628.25;;;26.92;52.04
43450;BME280;29041;42.266;23.110;2023-08-06T13:42:12;94612.22;;;27.18;50.28
43450;BME280;29041;42.266;23.110;2023-08-06T13:45:00;94622.03;;;27.29;51.05
43450;BME280;29041;42.266;23.110;2023-08-06T13:47:49;94631.66;;;27.15;51.92
43450;BME280;29041;42.266;23.110;2023-08-06T13:50:36;94621.88;;;27.42;51.60
43450;BME280;29041;42.266;23.110;2023-08-06T13:53:23;94631.28;;;26.75;52.46
43450;BME280;29041;42.266;23.110;2023-08-06T13:56:15;94622.25;;;26.75;52.74
43450;BME280;29041;42.266;23.110;2023-08-06T13:59:05;94611.28;;;26.94;51.28
43450;BME280;29041;42.266;23.110;2023-08-06T14:01:52;94630.72;;;27.08;51.41
43450;BME280;29041;42.266;23.110;2023-08-06T14:04:39;94633.78;;;27.20;51.18
43450;BME280;29041;42.266;23.110;2023-08-06T14:07:26;94631.81;;;27.20;50.91
43450;BME280;29041;42.266;23.110;2023-08-06T14:10:14;94622.63;;;27.05;50.85
43450;BME280;29041;42.266;23.110;2023-08-06T14:13:01;94621.06;;;26.95;50.43
43450;BME280;29041;42.266;23.110;2023-08-06T14:15:49;94631.03;;;27.01;50.50
43450;BME280;29041;42.266;23.110;2023-08-06T14:18:36;94633.63;;;26.96;50.46
43450;BME280;29041;42.266;23.110;2023-08-06T14:21:24;94629.19;;;27.07;50.19
43450;BME280;29041;42.266;23.110;2023-08-06T14:24:11;94618.63;;;27.15;49.77
43450;BME280;29041;42.266;23.110;2023-08-06T14:26:58;94617.88;;;27.52;48.72
43450;BME280;29041;42.266;23.110;2023-08-06T14:29:45;94626.41;;;27.82;48.45
43450;BME280;29041;42.266;23.110;2023-08-06T14:32:34;94623.09;;;27.22;48.74